createdAt,value
2018-03-18T19:03:32.306Z,2.03
2018-03-18T19:06:36.470Z,2.10
2018-03-18T19:09:39.896Z,2.07
2018-03-18T19:12:43.304Z,2.00
2018-03-18T19:15:46.744Z,2.60
2018-03-18T19:18:50.416Z,1.93
2018-03-18T19:21:53.985Z,2.80
2018-03-18T19:24:57.440Z,2.37
2018-03-18T19:28:00.881Z,1.90
2018-03-18T19:31:04.345Z,2.20
2018-03-18T19:34:07.810Z,2.57
2018-03-18T19:37:12.289Z,2.27
2018-03-18T19:40:15.755Z,2.30
2018-03-18T19:43:19.964Z,2.87
2018-03-18T19:46:24.139Z,2.43
2018-03-18T19:49:27.595Z,2.30
2018-03-18T19:52:31.964Z,2.20
2018-03-18T19:55:35.366Z,1.93
2018-03-18T19:58:38.792Z,2.07
2018-03-18T20:01:42.437Z,2.53
2018-03-18T20:04:45.957Z,2.33
2018-03-18T20:07:49.353Z,1.97
2018-03-18T20:10:52.903Z,2.20
2018-03-18T20:13:56.368Z,2.30
2018-03-18T20:16:59.778Z,1.97
2018-03-18T20:20:03.144Z,2.00
2018-03-18T20:23:06.542Z,1.93
2018-03-18T20:26:10.243Z,2.07
2018-03-18T20:29:13.630Z,2.40
2018-03-18T20:32:17.781Z,1.70
2018-03-18T20:35:21.210Z,2.00
2018-03-18T20:38:24.630Z,2.50
2018-03-18T20:41:28.054Z,1.90
2018-03-18T20:44:32.237Z,2.00
2018-03-18T20:47:35.681Z,2.27
2018-03-18T20:50:39.092Z,2.10
2018-03-18T20:53:42.974Z,3.83
2018-03-18T20:56:46.979Z,2.13
2018-03-18T20:59:51.330Z,2.20
2018-03-18T21:02:54.931Z,5.50
2018-03-18T21:05:58.385Z,4.43
2018-03-18T21:09:01.813Z,6.10
2018-03-18T21:12:05.983Z,5.37
2018-03-18T21:15:11.076Z,5.03
2018-03-18T21:18:15.266Z,2.20
2018-03-18T21:21:19.315Z,2.43
2018-03-18T21:24:23.333Z,2.20
2018-03-18T21:27:28.043Z,1.83
2018-03-18T21:30:32.488Z,2.20
2018-03-18T21:33:35.956Z,2.40
2018-03-18T21:36:40.347Z,2.33
2018-03-18T21:39:45.050Z,2.07
2018-03-18T21:42:49.449Z,2.33
2018-03-18T21:45:53.695Z,1.90
2018-03-18T21:48:57.146Z,2.10
2018-03-18T21:52:02.311Z,2.07
2018-03-18T21:55:07.846Z,2.00
2018-03-18T21:58:11.625Z,2.30
2018-03-18T22:01:15.374Z,1.80
2018-03-18T22:04:19.659Z,2.50
2018-03-18T22:07:23.406Z,2.20
2018-03-18T22:10:26.790Z,1.80
2018-03-18T22:13:30.151Z,2.53
2018-03-18T22:16:33.554Z,2.03
2018-03-18T22:19:36.915Z,2.53
2018-03-18T22:22:40.586Z,2.10
2018-03-18T22:25:45.454Z,1.90
2018-03-18T22:28:49.586Z,2.70
2018-03-18T22:31:53.158Z,2.23
2018-03-18T22:34:57.291Z,2.83
2018-03-18T22:38:01.634Z,2.13
2018-03-18T22:41:05.085Z,1.93
2018-03-18T22:44:09.346Z,2.43
2018-03-18T22:47:12.723Z,2.63
2018-03-18T22:50:16.976Z,2.57
2018-03-18T22:53:20.517Z,2.43
2018-03-18T22:56:23.870Z,2.47
2018-03-18T22:59:27.342Z,2.00
2018-03-18T23:02:30.717Z,2.17
2018-03-18T23:05:34.162Z,2.10
2018-03-18T23:08:37.519Z,2.40
2018-03-18T23:11:42.450Z,2.33
2018-03-18T23:14:45.864Z,2.07
2018-03-18T23:17:49.955Z,2.00
2018-03-18T23:20:53.330Z,1.77
2018-03-18T23:23:56.981Z,2.40
2018-03-18T23:27:01.124Z,2.37
2018-03-18T23:30:05.380Z,2.20
2018-03-18T23:33:08.867Z,2.00
2018-03-18T23:36:12.207Z,2.93
2018-03-18T23:39:15.566Z,2.23
2018-03-18T23:42:18.951Z,2.03
2018-03-18T23:45:22.437Z,2.30
2018-03-18T23:48:26.738Z,2.30
2018-03-18T23:51:30.155Z,1.90
2018-03-18T23:54:34.295Z,2.60
2018-03-18T23:57:37.667Z,2.10
